Wednesday, February 21, 2018, 8:12 PM EST
Back to Local

K1P1, Plymouth, Plymouth Municipal Airport

Location: Plymouth, NH, United States Lat: 43.779
Local Time: 8:12 PM EST ( 1:12 GMT) Lon: -71.754
Time Zone: US/Eastern Elev: 505 ft

Show me the last for .
Show Decoded

2018-02-21 19:55 METAR K1P1 220055Z AUTO 30008KT 10SM OVC049 09/03 A3031 RMK AO2 T00860029 =
2018-02-21 19:29 METAR K1P1 220035Z AUTO 30005KT 10SM OVC045 09/03 A3029 RMK AO2 T00900034 =
2018-02-21 19:15 METAR K1P1 220015Z AUTO 29005KT 10SM SCT034 OVC045 09/04 A3028 RMK AO2 T00900039
                 =
2018-02-21 18:55 METAR K1P1 212355Z AUTO 29008G16KT 10SM SCT034 OVC043 09/04 A3027 RMK AO2
                 T00910043 10199 20090 =
2018-02-21 18:26 METAR K1P1 212335Z AUTO 29007G20KT 10SM SCT025 OVC045 09/05 A3026 RMK AO2
                 T00940048 =
2018-02-21 18:15 METAR K1P1 212315Z AUTO 29011G18KT 10SM OVC025 10/06 A3024 RMK AO2 T01020059 =
2018-02-21 17:55 METAR K1P1 212255Z AUTO 30012G18KT 10SM BKN023 OVC028 11/08 A3021 RMK AO2
                 T01110075 =
2018-02-21 17:26 METAR K1P1 212235Z AUTO 29009G18KT 10SM SCT020 BKN027 OVC055 12/10 A3018 RMK AO2
                 T01180095 =
2018-02-21 17:15 METAR K1P1 212215Z AUTO 28006KT 7SM -DZ BKN023 OVC033 13/11 A3015 RMK AO2
                 T01290108 =
2018-02-21 16:55 METAR K1P1 212155Z AUTO 27008G18KT 4SM -DZ BKN023 OVC035 14/11 A3014 RMK AO2
                 T01420108 =
2018-02-21 16:27 METAR K1P1 212135Z AUTO 28010G21KT 7SM -RA SCT034 OVC044 17/11 A3010 RMK AO2
                 T01730105 =
2018-02-21 16:15 METAR K1P1 212115Z AUTO 30003KT 10SM OVC050 18/09 A3005 RMK AO2 T01810093 =
2018-02-21 15:55 METAR K1P1 212055Z AUTO 00000KT 10SM OVC060 17/08 A3004 RMK AO2 T01660079 =
2018-02-21 15:29 METAR K1P1 212035Z AUTO 00000KT 10SM BKN060 OVC100 19/08 A3004 RMK AO2 T01910080
                 =
2018-02-21 15:02 METAR K1P1 212015Z AUTO 00000KT 10SM BKN060 18/09 A3003 RMK AO2 T01820089 =
2018-02-21 14:55 METAR K1P1 211955Z AUTO 00000KT 10SM BKN060 18/09 A3003 RMK AO2 T01840094 =
2018-02-21 14:27 METAR K1P1 211935Z AUTO 00000KT 10SM CLR 19/10 A3003 RMK AO2 T01850095 =
2018-02-21 14:15 METAR K1P1 211915Z AUTO 00000KT 10SM CLR 17/09 A3004 RMK AO2 T01680086 =
2018-02-21 13:55 METAR K1P1 211855Z AUTO 00000KT 10SM CLR 17/09 A3004 RMK AO2 T01660088 =
2018-02-21 13:27 METAR K1P1 211835Z AUTO 00000KT 10SM CLR 15/07 A3005 RMK AO2 T01530073 =
2018-02-21 13:15 METAR K1P1 211815Z AUTO 00000KT 10SM CLR 14/06 A3006 RMK AO2 T01410059 =
2018-02-21 12:55 METAR K1P1 211755Z AUTO 00000KT 10SM CLR 13/05 A3006 RMK AO2 T01320051 10132
                 20000 =
2018-02-21 12:28 METAR K1P1 211735Z AUTO 00000KT 10SM CLR 12/04 A3007 RMK AO2 T01210042 =
2018-02-21 12:15 METAR K1P1 211715Z AUTO 00000KT 10SM CLR 11/04 A3008 RMK AO2 T01100039 =
2018-02-21 11:55 METAR K1P1 211655Z AUTO 00000KT 10SM CLR 10/04 A3009 RMK AO2 T00990041 =
2018-02-21 11:28 METAR K1P1 211635Z AUTO 00000KT 10SM CLR 09/04 A3011 RMK AO2 T00900038 =
2018-02-21 11:15 METAR K1P1 211615Z AUTO 00000KT 10SM CLR 09/04 A3011 RMK AO2 T00850038 =
2018-02-21 10:55 METAR K1P1 211555Z AUTO 00000KT 10SM CLR 07/03 A3012 RMK AO2 T00720029 =
2018-02-21 10:27 METAR K1P1 211535Z AUTO 00000KT 10SM CLR 06/02 A3014 RMK AO2 T00580024 =
2018-02-21 10:15 METAR K1P1 211515Z AUTO 00000KT 10SM CLR 05/03 A3014 RMK AO2 T00490025 =
2018-02-21 09:55 METAR K1P1 211455Z AUTO 00000KT 10SM CLR 04/03 A3015 RMK AO2 T00360027 =
2018-02-21 09:27 METAR K1P1 211435Z AUTO 00000KT 10SM CLR 03/03 A3015 RMK AO2 T00270025 =
2018-02-21 09:15 METAR K1P1 211415Z AUTO 00000KT 10SM SCT001 02/02 A3016 RMK AO2 T00190017 =
2018-02-21 08:55 METAR K1P1 211355Z AUTO 00000KT 1/2SM FG OVC001 01/01 A3017 RMK AO2 T00110010 =
2018-02-21 08:27 METAR K1P1 211335Z AUTO 00000KT 1/4SM FG OVC001 01/00 A3017 RMK AO2 T00050004 =
2018-02-21 08:15 METAR K1P1 211315Z AUTO 00000KT 1/4SM FG OVC001 01/00 A3018 RMK AO2 T00050004 =
2018-02-21 07:55 METAR K1P1 211255Z AUTO 00000KT M1/4SM FG OVC001 00/00 A3018 RMK AO2 T00010000 =
2018-02-21 07:28 METAR K1P1 211235Z AUTO 00000KT M1/4SM FG OVC001 00/00 A3018 RMK AO2 T00000000 =
2018-02-21 07:15 METAR K1P1 211215Z AUTO 00000KT M1/4SM FG OVC001 00/00 A3017 RMK AO2 T00001001 =
2018-02-21 06:55 METAR K1P1 211155Z AUTO 00000KT M1/4SM FG OVC001 00/00 A3017 RMK AO2 T00001002
                 10011 21005 =
2018-02-21 06:29 METAR K1P1 211135Z AUTO 00000KT 3/4SM BR OVC001 00/00 A3017 RMK AO2 T10011003 =
2018-02-21 06:15 METAR K1P1 211115Z AUTO 00000KT 5SM BR OVC003 00/00 A3018 RMK AO2 T10031005 =
2018-02-21 05:55 METAR K1P1 211055Z AUTO 00000KT 7SM OVC003 00/00 A3019 RMK AO2 T10031005 =
2018-02-21 05:30 METAR K1P1 211035Z AUTO 00000KT 10SM OVC003 00/M01 A3020 RMK AO2 T10041007 =
2018-02-21 05:15 METAR K1P1 211015Z AUTO 00000KT 10SM OVC003 00/00 A3020 RMK AO2 T10021005 =
2018-02-21 04:55 METAR K1P1 210955Z AUTO 00000KT 7SM OVC003 00/00 A3021 RMK AO2 T10021005 =
2018-02-21 04:27 METAR K1P1 210935Z AUTO 00000KT 7SM BKN003 00/00 A3021 RMK AO2 T10011005 =
2018-02-21 04:15 METAR K1P1 210915Z AUTO 00000KT 7SM SCT003 00/00 A3022 RMK AO2 T00001003 =
2018-02-21 03:55 METAR K1P1 210855Z AUTO 00000KT 10SM SCT005 00/00 A3022 RMK AO2 T00001002 =
2018-02-21 03:25 METAR K1P1 210835Z AUTO 00000KT 10SM CLR 00/00 A3023 RMK AO2 T00011001 =
2018-02-21 03:06 METAR K1P1 210815Z AUTO 00000KT 10SM CLR 00/00 A3023 RMK AO2 T00030000 =
2018-02-21 02:55 METAR K1P1 210755Z AUTO 00000KT 10SM CLR 01/00 A3023 RMK AO2 T00050000 =
2018-02-21 02:25 METAR K1P1 210735Z AUTO 00000KT 10SM CLR 01/00 A3023 RMK AO2 T00060000 =
2018-02-21 02:15 METAR K1P1 210715Z AUTO 00000KT 10SM CLR 01/00 A3024 RMK AO2 T00070000 =
2018-02-21 01:55 METAR K1P1 210655Z AUTO 00000KT 10SM CLR 01/00 A3025 RMK AO2 T00090002 =
2018-02-21 01:32 METAR K1P1 210635Z AUTO 00000KT 10SM CLR 01/00 A3025 RMK AO2 T00100001 =
2018-02-21 01:15 METAR K1P1 210615Z AUTO 00000KT 10SM SCT050 BKN065 BKN075 01/00 A3025 RMK AO2
                 T00110004 =
2018-02-21 00:55 METAR K1P1 210555Z AUTO 00000KT 10SM SCT050 BKN065 01/00 A3026 RMK AO2 T00110003
                 10033 20010 =
2018-02-21 00:25 METAR K1P1 210535Z AUTO 00000KT 10SM SCT080 01/00 A3026 RMK AO2 T00110002 =
2018-02-21 00:15 METAR K1P1 210515Z AUTO 00000KT 10SM SCT080 01/00 A3025 RMK AO2 T00120002 =
2018-02-20 23:55 METAR K1P1 210455Z AUTO 00000KT 10SM CLR 02/01 A3026 RMK AO2 T00170006 =
2018-02-20 23:27 METAR K1P1 210435Z AUTO 00000KT 10SM BKN060 02/00 A3027 RMK AO2 T00170004 =
2018-02-20 23:15 METAR K1P1 210415Z AUTO 00000KT 10SM SCT050 OVC060 02/01 A3026 RMK AO2 T00200007
                 =
2018-02-20 22:55 METAR K1P1 210355Z AUTO 00000KT 10SM SCT047 OVC060 02/01 A3026 RMK AO2 T00210008
                 400930006 =
2018-02-20 22:24 METAR K1P1 210335Z AUTO 00000KT 10SM OVC047 02/01 A3026 RMK AO2 T00210009 =
2018-02-20 22:15 METAR K1P1 210315Z AUTO 00000KT 10SM OVC049 02/01 A3026 RMK AO2 T00240011 =
2018-02-20 21:55 METAR K1P1 210255Z AUTO 00000KT 10SM BKN047 BKN050 OVC065 02/01 A3026 RMK AO2
                 T00220011 =
2018-02-20 21:26 METAR K1P1 210235Z AUTO 00000KT 10SM OVC045 02/01 A3026 RMK AO2 T00180006 =
2018-02-20 21:15 METAR K1P1 210215Z AUTO 00000KT 10SM OVC045 02/01 A3025 RMK AO2 T00230011 =
2018-02-20 20:55 METAR K1P1 210155Z AUTO 00000KT 10SM OVC047 02/01 A3024 RMK AO2 T00230011 =
2018-02-20 20:26 METAR K1P1 210135Z AUTO 00000KT 10SM OVC045 03/01 A3024 RMK AO2 T00250013 =

Support USWX by starting your Amazon purchase here.